Time;durP1;ratioP1;P1;durP2;ratioP2;P2;SDS_P1;SDS_P2;PMS_P1;PMS_P2;Temp;Humidity;BMP_temperature;BMP_pressure;BME280_temperature;BME280_humidity;BME280_pressure;Samples;Min_cycle;Max_cycle;Signal;HPM_P1;HPM_P2
2021/12/23 00:10:44;;;;;;;34.83;19.62;;;;;;;5.53;53.74;100982.64;1882493;103;25450;-81
2021/12/23 00:14:34;;;;;;;;;;;;;;;;;;;;;
2021/12/23 00:18:40;;;;;;;;;;;;;;;;;;;;;
2021/12/23 00:27:16;;;;;;;;;;;;;;;;;;;;;
2021/12/23 00:39:31;;;;;;;40.70;21.30;;;;;;;5.43;53.63;100947.62;1777309;109;25890;-81
2021/12/23 00:43:26;;;;;;;40.52;21.80;;;;;;;5.40;53.52;100943.59;1737452;111;26225;-82
2021/12/23 00:47:41;;;;;;;36.40;19.73;;;;;;;5.38;53.47;100942.64;1735657;111;26237;-81
2021/12/23 00:51:14;;;;;;;41.20;20.52;;;;;;;5.35;53.45;100936.89;1800137;108;25795;-80
2021/12/23 00:55:14;;;;;;;;;;;;;;;;;;;;;
2021/12/23 01:11:48;;;;;;;38.80;20.85;;;;;;;5.25;53.21;100921.70;1760732;108;25836;-83
2021/12/23 01:15:37;;;;;;;40.10;21.15;;;;;;;5.21;53.14;100908.13;1790753;109;26100;-80
2021/12/23 01:18:59;;;;;;;44.35;21.17;;;;;;;5.20;53.12;100912.41;1784613;108;26990;-83
2021/12/23 01:22:24;;;;;;;45.55;22.07;;;;;;;5.19;53.12;100905.85;1843550;105;26478;-81
2021/12/23 01:25:53;;;;;;;33.13;20.32;;;;;;;5.17;53.01;100903.61;1732594;108;25931;-80
2021/12/23 01:29:31;;;;;;;39.13;20.80;;;;;;;5.15;52.98;100902.63;1744026;106;26201;-80
2021/12/23 01:33:00;;;;;;;35.10;20.15;;;;;;;5.15;52.99;100902.63;1737759;111;25841;-79
2021/12/23 01:36:45;;;;;;;37.85;19.85;;;;;;;5.14;52.90;100904.33;1808439;107;25905;-80
2021/12/23 01:40:30;;;;;;;37.80;20.17;;;;;;;5.13;52.96;100895.17;1843158;105;25880;-80
2021/12/23 01:44:31;;;;;;;35.43;20.23;;;;;;;5.12;52.85;100889.53;1865680;102;26570;-82
2021/12/23 01:48:04;;;;;;;40.92;20.23;;;;;;;5.11;52.83;100891.64;1913445;101;25927;-82
2021/12/23 01:51:37;;;;;;;32.58;18.10;;;;;;;5.06;52.71;100877.20;1927092;100;25855;-82
2021/12/23 01:55:10;;;;;;;34.75;20.12;;;;;;;5.05;52.71;100883.55;1913565;101;25910;-82
2021/12/23 01:58:54;;;;;;;31.97;18.92;;;;;;;5.02;52.63;100873.94;1957450;98;32444;-79
2021/12/23 02:02:32;;;;;;;33.15;18.98;;;;;;;5.02;52.67;100863.59;1975512;98;26501;-80
2021/12/23 02:10:12;;;;;;;35.20;18.92;;;;;;;4.97;52.57;100845.69;1874711;104;25843;-79
2021/12/23 02:13:56;;;;;;;;;;;;;;;;;;;;;
2021/12/23 02:17:20;;;;;;;35.25;19.85;;;;;;;4.94;52.37;100837.36;1875427;103;26023;-80
2021/12/23 02:20:47;;;;;;;35.17;19.00;;;;;;;4.93;52.38;100833.42;1873583;103;25811;-82
2021/12/23 02:24:26;;;;;;;31.60;18.30;;;;;;;4.90;52.26;100835.43;1866523;104;25869;-79
2021/12/23 02:28:08;;;;;;;31.90;19.12;;;;;;;4.89;52.28;100824.63;1887852;100;25827;-80
2021/12/23 02:31:44;;;;;;;33.13;18.57;;;;;;;4.87;52.29;100817.17;1963378;99;25765;-82
2021/12/23 02:35:22;;;;;;;30.20;17.42;;;;;;;4.85;52.17;100812.73;1958489;99;26207;-82
2021/12/23 02:39:10;;;;;;;32.30;18.20;;;;;;;4.84;52.08;100814.42;1968338;95;25804;-81
2021/12/23 02:42:31;;;;;;;29.37;17.85;;;;;;;4.82;52.01;100798.35;2047277;96;25812;-79
2021/12/23 02:45:59;;;;;;;37.40;19.27;;;;;;;4.80;52.05;100795.70;2044473;95;26668;-80
2021/12/23 02:53:30;;;;;;;38.20;19.77;;;;;;;4.76;51.87;100793.77;1963995;100;25983;-81
2021/12/23 02:56:55;;;;;;;36.40;19.50;;;;;;;4.75;52.00;100781.64;1905035;102;25710;-79
2021/12/23 03:00:21;;;;;;;35.70;18.37;;;;;;;4.71;51.87;100783.17;1900370;102;25929;-79
2021/12/23 03:04:02;;;;;;;30.05;16.25;;;;;;;4.69;51.84;100775.77;1905756;102;25903;-82
2021/12/23 03:07:51;;;;;;;32.03;17.90;;;;;;;4.67;51.73;100779.95;1897545;98;25865;-80
2021/12/23 03:11:31;;;;;;;32.33;17.67;;;;;;;4.64;51.74;100778.48;1884780;103;25943;-79
2021/12/23 03:15:04;;;;;;;32.23;17.85;;;;;;;4.63;51.73;100776.72;1879728;104;25966;-80
2021/12/23 03:18:41;;;;;;;31.82;17.80;;;;;;;4.60;51.72;100770.09;1885903;103;26016;-81
2021/12/23 03:22:26;;;;;;;27.95;17.35;;;;;;;4.59;51.68;100760.96;1881118;104;25882;-81
2021/12/23 03:29:42;;;;;;;30.10;17.92;;;;;;;4.54;51.58;100754.27;2010930;95;26537;-78
2021/12/23 03:33:21;;;;;;;30.43;17.57;;;;;;;4.51;51.56;100751.52;2009553;97;25422;-80
2021/12/23 03:36:50;;;;;;;29.63;17.42;;;;;;;4.49;51.48;100748.87;1954194;99;25946;-79
2021/12/23 03:40:36;;;;;;;32.65;17.25;;;;;;;4.48;51.42;100741.03;1955654;99;25821;-80
2021/12/23 03:43:51;;;;;;;34.90;17.05;;;;;;;4.47;51.39;100738.85;1956532;100;25741;-78
2021/12/23 03:47:41;;;;;;;;;;;;;;;;;;;;;
2021/12/23 03:51:13;;;;;;;34.30;17.65;;;;;;;4.43;51.30;100730.88;1960425;100;25397;-81
2021/12/23 03:55:10;;;;;;;;;;;;;;;;;;;;;
2021/12/23 03:58:29;;;;;;;29.65;18.52;;;;;;;4.41;51.32;100720.86;1975028;98;25861;-79
2021/12/23 04:02:01;;;;;;;34.63;18.02;;;;;;;4.40;51.16;100712.64;1963229;99;25790;-84
2021/12/23 04:05:35;;;;;;;31.52;18.80;;;;;;;4.39;51.23;100713.05;1967964;98;25704;-81
2021/12/23 04:09:18;;;;;;;31.00;17.20;;;;;;;4.38;51.25;100700.03;1921993;100;26009;-82
2021/12/23 04:12:59;;;;;;;32.20;16.60;;;;;;;4.37;51.18;100691.41;1921735;101;25879;-80
2021/12/23 04:16:24;;;;;;;31.00;17.95;;;;;;;4.36;51.14;100684.48;1923494;101;25914;-82
2021/12/23 04:20:12;;;;;;;;;;;;;;;;;;;;;
2021/12/23 04:23:39;;;;;;;30.75;17.55;;;;;;;4.36;51.05;100674.16;1935555;100;25737;-81
2021/12/23 04:27:07;;;;;;;32.33;16.80;;;;;;;4.35;50.97;100674.06;1951019;100;25872;-80
2021/12/23 04:30:37;;;;;;;28.55;16.55;;;;;;;4.36;51.01;100668.12;1943894;99;25514;-78
2021/12/23 04:34:20;;;;;;;29.18;16.80;;;;;;;4.35;50.89;100652.12;1929898;100;25994;-78
2021/12/23 04:38:01;;;;;;;31.97;17.10;;;;;;;4.34;50.90;100645.19;1878159;103;25874;-80
2021/12/23 04:45:27;;;;;;;29.87;17.42;;;;;;;4.32;50.88;100642.92;1834103;106;26567;-82
2021/12/23 04:48:58;;;;;;;29.63;17.00;;;;;;;4.33;50.92;100631.81;1858906;104;25812;-80
2021/12/23 04:52:56;;;;;;;29.90;16.85;;;;;;;4.33;50.87;100627.94;1855585;105;25953;-80
2021/12/23 04:59:55;;;;;;;33.70;18.32;;;;;;;4.29;50.66;100609.20;1759121;111;25836;-83
2021/12/23 05:03:27;;;;;;;31.73;18.05;;;;;;;4.28;50.73;100606.16;1733019;110;25845;-79
2021/12/23 05:07:12;;;;;;;31.05;18.52;;;;;;;4.26;50.71;100604.39;1866223;102;25884;-81
2021/12/23 05:11:11;;;;;;;30.30;17.62;;;;;;;4.26;50.61;100595.77;1919891;101;25512;-80
2021/12/23 05:18:21;;;;;;;35.00;18.15;;;;;;;4.23;50.51;100578.42;1837563;105;25895;-79
2021/12/23 05:21:55;;;;;;;32.25;17.50;;;;;;;4.24;50.58;100576.31;1862506;102;25837;-81
2021/12/23 05:25:20;;;;;;;27.75;18.07;;;;;;;4.21;50.35;100576.15;1848373;104;25950;-80
2021/12/23 05:29:02;;;;;;;;;;;;;;;;;;;;;
2021/12/23 05:32:30;;;;;;;34.15;18.35;;;;;;;4.20;50.36;100572.21;1853171;104;25519;-81
2021/12/23 05:35:59;;;;;;;31.65;17.57;;;;;;;4.19;50.30;100565.29;1863378;104;26592;-81
2021/12/23 05:39:22;;;;;;;37.90;18.37;;;;;;;4.17;50.24;100557.45;1895020;103;26387;-82
2021/12/23 05:43:02;;;;;;;29.87;17.15;;;;;;;4.20;50.19;100552.86;1907251;102;25899;-80
2021/12/23 05:46:33;;;;;;;29.77;19.07;;;;;;;4.18;50.14;100548.89;1928328;101;25693;-79
2021/12/23 05:50:03;;;;;;;34.90;19.25;;;;;;;4.17;50.07;100551.00;1997570;97;25825;-81
2021/12/23 05:53:45;;;;;;;35.40;19.27;;;;;;;4.15;49.95;100542.31;1980205;98;25804;-79
2021/12/23 05:57:13;;;;;;;31.57;18.35;;;;;;;4.17;49.97;100547.12;2017654;96;25781;-80
2021/12/23 06:00:53;;;;;;;32.08;18.17;;;;;;;4.15;49.98;100539.73;1986804;98;25779;-80
2021/12/23 06:04:28;;;;;;;36.88;19.02;;;;;;;4.16;49.85;100530.30;2061362;94;26132;-80
2021/12/23 06:08:05;;;;;;;32.78;17.57;;;;;;;4.15;49.84;100541.39;2010096;97;26005;-80
2021/12/23 06:11:41;;;;;;;32.93;18.50;;;;;;;4.15;49.80;100543.98;1997051;97;26553;-80
2021/12/23 06:15:09;;;;;;;37.60;17.67;;;;;;;4.14;49.78;100535.77;2089005;92;25767;-81
2021/12/23 06:18:44;;;;;;;28.32;18.02;;;;;;;4.15;49.83;100523.34;2106964;92;25821;-80
2021/12/23 06:22:26;;;;;;;33.63;18.60;;;;;;;4.15;49.75;100517.80;2102291;92;25830;-80
2021/12/23 06:26:07;;;;;;;31.37;16.82;;;;;;;4.14;49.63;100517.30;2098453;92;25612;-80
2021/12/23 06:29:34;;;;;;;34.03;17.40;;;;;;;4.13;49.67;100518.11;2100460;93;25763;-79
2021/12/23 06:33:00;;;;;;;30.60;17.98;;;;;;;4.13;49.60;100518.11;2101594;92;25877;-79
2021/12/23 06:36:33;;;;;;;30.75;18.30;;;;;;;4.14;49.52;100522.86;2099743;93;25827;-79
2021/12/23 06:40:05;;;;;;;34.55;18.27;;;;;;;4.13;49.59;100506.50;2093427;93;25780;-80
2021/12/23 06:43:46;;;;;;;31.53;18.17;;;;;;;4.13;49.55;100503.92;2070273;93;25826;-81
2021/12/23 06:50:46;;;;;;;29.30;16.55;;;;;;;4.13;49.46;100506.50;1930181;100;25784;-80
2021/12/23 06:54:27;;;;;;;35.30;18.95;;;;;;;4.12;49.33;100496.12;1930277;101;25903;-79
2021/12/23 06:57:56;;;;;;;35.45;18.20;;;;;;;4.13;49.35;100502.63;1930056;100;25773;-80
2021/12/23 07:01:22;;;;;;;36.88;18.73;;;;;;;4.13;49.29;100505.63;1927719;100;25820;-80
2021/12/23 07:04:54;;;;;;;35.60;18.77;;;;;;;4.14;49.30;100500.94;1967717;98;25999;-80
2021/12/23 07:08:40;;;;;;;34.43;18.07;;;;;;;4.12;49.09;100496.12;2057761;94;26220;-81
2021/12/23 07:12:25;;;;;;;33.83;17.62;;;;;;;4.14;49.03;100497.06;1979686;98;25736;-83
2021/12/23 07:16:07;;;;;;;32.33;17.87;;;;;;;4.13;49.02;100491.43;1983284;97;26580;-80
2021/12/23 07:19:29;;;;;;;29.57;17.80;;;;;;;4.14;49.00;100482.46;1987583;97;26475;-81
2021/12/23 07:23:00;;;;;;;37.78;19.87;;;;;;;4.14;48.92;100481.17;1949348;100;25699;-81
2021/12/23 07:26:36;;;;;;;36.85;18.73;;;;;;;4.17;48.91;100482.62;1910048;101;26073;-82
2021/12/23 07:30:15;;;;;;;35.73;19.77;;;;;;;4.18;48.79;100476.64;1908450;102;25788;-80
2021/12/23 07:33:49;;;;;;;36.20;18.05;;;;;;;4.21;48.77;100479.79;1895889;102;25807;-80
2021/12/23 07:37:26;;;;;;;31.48;18.45;;;;;;;4.23;48.70;100465.28;1878654;103;25914;-80
2021/12/23 07:41:16;;;;;;;33.42;18.17;;;;;;;4.25;48.67;100471.02;1882919;103;26010;-81
2021/12/23 07:44:43;;;;;;;40.12;19.57;;;;;;;4.29;48.69;100456.94;1945966;99;25794;-81
2021/12/23 07:48:09;;;;;;;34.10;19.73;;;;;;;4.33;48.66;100455.90;1949487;99;25821;-81
2021/12/23 07:51:33;;;;;;;35.23;19.52;;;;;;;4.39;48.65;100457.91;1947697;100;25489;-82
2021/12/23 07:55:27;;;;;;;39.50;20.90;;;;;;;4.42;48.60;100446.41;1945339;100;25876;-80
2021/12/23 07:58:53;;;;;;;35.63;19.65;;;;;;;4.45;48.57;100452.61;2021295;95;25821;-81
2021/12/23 08:02:25;;;;;;;34.95;18.70;;;;;;;4.52;48.62;100445.17;2035104;95;25730;-82
2021/12/23 08:05:52;;;;;;;35.00;19.25;;;;;;;4.55;48.58;100442.33;2030906;95;26563;-81
2021/12/23 08:09:17;;;;;;;35.28;18.90;;;;;;;4.61;48.49;100435.30;1953122;99;33017;-81
2021/12/23 08:12:41;;;;;;;34.33;19.32;;;;;;;4.64;48.51;100431.58;1950221;100;26394;-82
2021/12/23 08:16:13;;;;;;;38.23;20.00;;;;;;;4.69;48.51;100424.54;1944515;99;26013;-81
2021/12/23 08:19:37;;;;;;;34.23;18.05;;;;;;;4.74;48.46;100419.58;1973110;96;26363;-82
2021/12/23 08:23:02;;;;;;;35.55;17.98;;;;;;;4.78;48.48;100413.74;2009922;94;25913;-82
2021/12/23 08:30:23;;;;;;;30.90;17.77;;;;;;;4.88;48.41;100412.06;1996256;97;25760;-82
2021/12/23 08:34:08;;;;;;;31.02;18.57;;;;;;;4.94;48.38;100405.02;2014803;96;25471;-82
2021/12/23 08:37:32;;;;;;;38.33;18.67;;;;;;;4.98;48.31;100397.88;2014315;96;25768;-81
2021/12/23 08:41:05;;;;;;;39.65;18.55;;;;;;;5.05;48.24;100392.18;2012770;96;25658;-80
2021/12/23 08:44:36;;;;;;;39.35;20.37;;;;;;;5.10;48.15;100387.24;1954807;99;25831;-82
2021/12/23 08:48:07;;;;;;;35.90;19.37;;;;;;;5.14;48.12;100390.02;1949410;99;25802;-80
2021/12/23 08:51:52;;;;;;;35.75;20.15;;;;;;;5.17;48.03;100374.66;1950298;99;26731;-78
2021/12/23 08:55:23;;;;;;;32.98;18.40;;;;;;;5.24;47.96;100366.77;1924732;101;25960;-78
2021/12/23 08:59:07;;;;;;;39.60;19.20;;;;;;;5.32;47.90;100361.94;1908618;100;26130;-80
2021/12/23 09:02:51;;;;;;;35.13;19.48;;;;;;;5.40;47.81;100360.56;1883712;102;25909;-78
2021/12/23 09:06:27;;;;;;;36.48;19.80;;;;;;;5.49;47.67;100356.21;1972544;96;25819;-81
2021/12/23 09:10:00;;;;;;;39.20;19.62;;;;;;;5.56;47.56;100352.66;1992648;96;26490;-81
2021/12/23 09:13:34;;;;;;;;;;;;;;;;;;;;;
2021/12/23 09:16:54;;;;;;;34.75;19.62;;;;;;;5.75;47.32;100354.75;1972707;96;26452;-81
2021/12/23 09:20:38;;;;;;;33.65;19.55;;;;;;;5.82;47.20;100353.77;1970922;98;34829;-80
2021/12/23 09:24:14;;;;;;;36.80;18.62;;;;;;;5.93;47.08;100349.48;1978048;99;26171;-79
2021/12/23 09:28:11;;;;;;;36.60;19.70;;;;;;;6.04;46.97;100340.08;2010893;95;25968;-78
2021/12/23 09:35:00;;;;;;;35.30;20.05;;;;;;;6.28;46.68;100318.59;2022561;95;26137;-79
2021/12/23 09:38:58;;;;;;;38.17;19.60;;;;;;;6.40;46.49;100312.58;2023424;95;25935;-78
2021/12/23 09:42:39;;;;;;;33.55;19.35;;;;;;;6.55;46.32;100310.59;2129195;89;26003;-80
2021/12/23 09:46:00;;;;;;;35.83;20.52;;;;;;;6.70;46.12;100303.81;2137226;91;25921;-80
2021/12/23 09:49:34;;;;;;;36.25;20.45;;;;;;;6.82;45.94;100300.40;2151744;89;26342;-80
2021/12/23 09:53:14;;;;;;;35.78;20.02;;;;;;;6.92;45.76;100294.23;2222505;85;26853;-81
2021/12/23 09:56:41;;;;;;;37.63;19.73;;;;;;;7.01;45.66;100295.45;2247144;84;26002;-81
2021/12/23 10:04:14;;;;;;;40.00;21.02;;;;;;;7.25;45.35;100287.67;2075771;92;25785;-81
2021/12/23 10:07:54;;;;;;;39.03;22.25;;;;;;;7.24;44.64;100278.14;2161307;88;25951;-81
2021/12/23 10:39:41;;;;;;;48.98;23.77;;;;;;;7.28;42.26;100216.89;2165047;86;25783;-87
2021/12/23 10:43:25;;;;;;;42.25;23.38;;;;;;;7.28;42.13;100207.40;2262574;86;25770;-86
2021/12/23 10:46:54;;;;;;;46.00;23.40;;;;;;;7.33;41.93;100204.56;2270477;85;25936;-84
2021/12/23 10:51:05;;;;;;;42.65;23.87;;;;;;;7.33;41.77;100190.72;2223375;83;25764;-82
2021/12/23 10:58:45;;;;;;;40.80;21.60;;;;;;;7.31;41.53;100181.99;2039388;94;25953;-80
2021/12/23 11:02:25;;;;;;;41.83;21.70;;;;;;;7.33;41.33;100168.67;2037551;94;25774;-86
2021/12/23 11:06:14;;;;;;;46.02;23.05;;;;;;;7.34;41.22;100149.27;2033817;96;25760;-83
2021/12/23 11:10:17;;;;;;;37.75;21.73;;;;;;;7.38;41.11;100138.57;2038802;94;25901;-85
2021/12/23 11:37:35;;;;;;;32.90;20.60;;;;;;;7.37;41.97;100074.58;1907245;102;25893;-86
2021/12/23 11:41:00;;;;;;;41.58;22.02;;;;;;;7.28;41.64;100055.71;1915169;100;25989;-81
2021/12/23 11:44:34;;;;;;;40.00;20.43;;;;;;;7.19;41.45;100048.05;1922231;100;25837;-83
2021/12/23 11:52:23;;;;;;;33.23;19.35;;;;;;;7.03;41.27;100028.56;2038919;96;26156;-86
2021/12/23 11:55:59;;;;;;;32.40;20.00;;;;;;;6.93;41.37;100023.91;2138537;90;26349;-82
2021/12/23 11:59:25;;;;;;;30.77;19.30;;;;;;;6.89;41.41;100008.69;2180852;90;25814;-88
2021/12/23 12:03:16;;;;;;;38.23;19.30;;;;;;;6.85;41.34;99996.44;2168843;88;25727;-88
2021/12/23 12:06:48;;;;;;;34.60;20.12;;;;;;;6.82;41.36;99989.89;2151948;90;25747;-88
2021/12/23 12:10:23;;;;;;;31.40;19.20;;;;;;;6.77;41.41;99972.00;2171149;90;25758;-88
2021/12/23 12:13:51;;;;;;;33.70;19.52;;;;;;;6.75;41.44;99965.49;2168343;89;25714;-88
2021/12/23 12:17:57;;;;;;;32.42;19.48;;;;;;;6.76;41.49;99962.48;2175200;89;25832;-88
2021/12/23 12:21:38;;;;;;;31.45;19.75;;;;;;;6.74;41.44;99949.47;2163026;90;26203;-90
2021/12/23 12:25:56;;;;;;;37.78;20.20;;;;;;;6.81;41.47;99945.36;2188586;86;25760;-87
2021/12/23 12:29:38;;;;;;;31.70;18.05;;;;;;;6.82;41.49;99940.24;2216053;86;25840;-88
2021/12/23 12:33:25;;;;;;;28.92;17.45;;;;;;;6.82;41.49;99936.36;2118057;89;25852;-88
2021/12/23 12:36:53;;;;;;;30.77;17.67;;;;;;;6.80;41.53;99927.64;2172157;87;25945;-89
2021/12/23 12:48:04;;;;;;;31.57;16.85;;;;;;;6.71;41.52;99905.33;2024999;94;25946;-86
2021/12/23 12:51:40;;;;;;;32.77;17.17;;;;;;;6.85;43.64;99914.43;2023781;94;26576;-88
2021/12/23 12:55:18;;;;;;;32.53;18.90;;;;;;;6.96;43.46;99900.50;1920678;99;25868;-84
2021/12/23 12:59:09;;;;;;;30.37;17.95;;;;;;;6.95;43.22;99897.84;1919100;99;25821;-82
2021/12/23 13:06:45;;;;;;;29.87;17.48;;;;;;;6.82;42.84;99888.84;1945845;98;25927;-81
2021/12/23 13:10:37;;;;;;;25.12;14.47;;;;;;;6.71;42.55;99886.31;2002272;96;25958;-79
2021/12/23 13:19:44;;;;;;;24.65;15.68;;;;;;;6.47;42.24;99873.06;2072501;93;25814;-83
2021/12/23 13:23:34;;;;;;;;;;;;;;;;;;;;;
2021/12/23 13:27:06;;;;;;;23.27;15.65;;;;;;;6.30;42.17;99853.52;2025950;93;26301;-84
2021/12/23 13:30:30;;;;;;;26.20;14.80;;;;;;;6.25;42.00;99852.52;2043434;93;26080;-80
2021/12/23 13:34:12;;;;;;;25.70;16.60;;;;;;;6.16;42.00;99845.31;2099308;92;25983;-82
2021/12/23 13:37:47;;;;;;;24.90;14.05;;;;;;;6.12;41.95;99840.87;2180313;88;25733;-83
2021/12/23 13:41:27;;;;;;;26.75;14.80;;;;;;;6.05;41.88;99852.73;2227408;86;25706;-85
2021/12/23 13:45:10;;;;;;;23.83;14.63;;;;;;;5.97;41.93;99836.05;2212282;87;25884;-81
2021/12/23 13:49:19;;;;;;;;;;;;;;;;;;;;;
2021/12/23 13:52:57;;;;;;;26.25;15.45;;;;;;;5.82;41.92;99817.42;2246659;86;25741;-80
2021/12/23 13:56:45;;;;;;;23.95;13.78;;;;;;;5.75;41.84;99816.75;2158267;90;26240;-80
2021/12/23 14:00:33;;;;;;;22.32;12.85;;;;;;;5.66;41.86;99813.02;2186769;88;26214;-80
2021/12/23 14:04:05;;;;;;;25.25;13.50;;;;;;;5.63;41.87;99804.27;2190230;89;25691;-80
2021/12/23 14:07:38;;;;;;;;;;;;;;;5.57;41.89;99793.33;2070863;94;25867;-83
2021/12/23 14:11:15;;;;;;;28.00;14.65;;;;;;;5.52;41.88;99801.33;2070623;94;26234;-82
2021/12/23 14:15:07;;;;;;;27.17;14.30;;;;;;;5.44;41.92;99797.61;2107757;93;25771;-81
2021/12/23 14:26:29;;;;;;;19.62;12.63;;;;;;;5.29;42.00;99779.84;2042603;94;25820;-82
2021/12/23 14:30:03;;;;;;;17.52;12.40;;;;;;;5.23;42.03;99778.75;2091701;92;25863;-83
2021/12/23 14:34:00;;;;;;;24.37;13.40;;;;;;;5.18;42.06;99767.84;2047933;95;25722;-82
2021/12/23 14:37:24;;;;;;;18.82;13.08;;;;;;;5.13;42.07;99765.91;2033019;95;25896;-83
2021/12/23 14:41:15;;;;;;;20.60;11.85;;;;;;;5.09;42.11;99758.88;2029248;94;25699;-80
2021/12/23 14:45:19;;;;;;;22.90;13.60;;;;;;;5.03;42.11;99747.94;2037695;94;25387;-80
2021/12/23 14:53:02;;;;;;;21.48;12.28;;;;;;;4.93;42.18;99730.36;2042464;94;25791;-83
2021/12/23 14:56:25;;;;;;;28.20;14.03;;;;;;;4.91;42.20;99730.70;2088779;93;26178;-80
2021/12/23 15:00:08;;;;;;;25.25;15.32;;;;;;;4.87;42.27;99721.97;2110693;92;25893;-80
2021/12/23 15:03:36;;;;;;;30.50;15.83;;;;;;;4.85;42.46;99717.15;2104316;91;25780;-81
2021/12/23 15:07:33;;;;;;;31.02;16.20;;;;;;;4.84;42.56;99708.07;2138078;91;25833;-81
2021/12/23 15:11:08;;;;;;;30.95;17.80;;;;;;;4.82;42.65;99692.92;2188915;88;25611;-82
2021/12/23 15:14:56;;;;;;;;;;;;;;;;;;;;;
2021/12/23 15:22:41;;;;;;;;;;;;;;;;;;;;;
2021/12/23 15:26:09;;;;;;;28.40;15.72;;;;;;;4.96;48.39;99692.60;2146889;89;25844;-81
2021/12/23 15:30:03;;;;;;;30.80;19.32;;;;;;;5.33;47.79;99683.91;2115874;90;26077;-82
2021/12/23 15:33:31;;;;;;;38.28;20.55;;;;;;;5.38;46.68;99668.16;2084010;90;26091;-82
2021/12/23 15:40:47;;;;;;;36.00;19.57;;;;;;;5.21;45.61;99643.92;2045739;95;26272;-80
2021/12/23 15:44:23;;;;;;;37.70;20.12;;;;;;;5.14;45.21;99642.38;2015529;95;26070;-81
2021/12/23 15:48:40;;;;;;;39.57;20.73;;;;;;;5.08;44.88;99638.30;2058462;92;25916;-81
2021/12/23 15:52:14;;;;;;;35.28;19.30;;;;;;;5.00;44.80;99632.01;2132046;91;26119;-84
2021/12/23 15:55:40;;;;;;;36.75;20.12;;;;;;;4.97;44.72;99619.45;2084099;93;26094;-81
2021/12/23 15:59:20;;;;;;;;;;;;;;;;;;;;;
2021/12/23 16:02:38;;;;;;;36.68;20.27;;;;;;;4.98;44.53;99616.44;2075608;92;26252;-84
2021/12/23 16:10:45;;;;;;;39.53;20.00;;;;;;;4.97;44.38;99596.20;2128696;89;25782;-78
2021/12/23 16:14:09;;;;;;;35.28;18.65;;;;;;;4.94;44.32;99594.80;2139934;90;25873;-82
2021/12/23 16:17:44;;;;;;;33.95;19.07;;;;;;;5.49;49.94;99584.48;2094152;90;25806;-79
2021/12/23 16:21:17;;;;;;;37.55;21.30;;;;;;;5.47;48.43;99570.62;2164599;89;25772;-81
2021/12/23 16:25:02;;;;;;;40.63;21.35;;;;;;;5.34;47.91;99563.80;2138013;89;26461;-81
2021/12/23 16:28:33;;;;;;;37.50;20.43;;;;;;;5.20;47.35;99554.74;2063097;94;25830;-80
2021/12/23 16:32:13;;;;;;;45.45;19.27;;;;;;;5.07;46.98;99548.30;2042341;95;25896;-82
2021/12/23 16:35:50;;;;;;;33.53;18.50;;;;;;;4.96;46.58;99549.25;2071485;94;25886;-83
2021/12/23 16:39:34;;;;;;;44.90;22.25;;;;;;;4.87;46.15;99541.61;2110941;92;25986;-81
2021/12/23 16:43:23;;;;;;;;;;;;;;;;;;;;;
2021/12/23 16:47:01;;;;;;;31.50;18.62;;;;;;;4.72;45.50;99537.70;1975539;97;25338;-83
2021/12/23 16:50:32;;;;;;;34.18;19.77;;;;;;;4.65;45.24;99533.13;1906235;101;26641;-81
2021/12/23 16:54:14;;;;;;;40.48;20.72;;;;;;;4.60;45.17;99523.50;1901035;100;26021;-82
2021/12/23 16:57:59;;;;;;;37.33;20.17;;;;;;;4.56;44.98;99514.78;1867757;103;26610;-84
2021/12/23 17:01:30;;;;;;;43.58;20.82;;;;;;;4.53;44.85;99503.06;1868888;103;25845;-80
2021/12/23 17:05:03;;;;;;;36.00;19.90;;;;;;;4.47;44.63;99498.98;1876232;103;27249;-81
2021/12/23 17:08:32;;;;;;;31.80;18.82;;;;;;;4.41;44.60;99501.34;1870633;103;25785;-82
2021/12/23 17:12:19;;;;;;;37.05;20.12;;;;;;;4.35;44.57;99496.84;1850322;104;25940;-81
2021/12/23 17:20:08;;;;;;;33.40;18.32;;;;;;;4.49;44.57;99490.47;1841373;103;25726;-81
2021/12/23 17:24:13;;;;;;;33.48;18.60;;;;;;;4.58;44.52;99489.00;1785874;106;26222;-85
2021/12/23 17:33:02;;;;;;;33.78;18.32;;;;;;;4.65;44.44;99458.27;1900879;101;25730;-91
2021/12/23 17:36:43;;;;;;;32.60;18.30;;;;;;;4.69;44.46;99453.70;1922548;100;26876;-78
2021/12/23 17:40:26;;;;;;;32.60;18.25;;;;;;;4.71;44.44;99442.11;1959606;97;26408;-83
2021/12/23 17:44:18;;;;;;;31.02;17.92;;;;;;;4.74;44.41;99426.30;2096642;91;25843;-81
2021/12/23 17:48:14;;;;;;;;;;;;;;;;;;;;;
2021/12/23 17:52:39;;;;;;;40.15;20.15;;;;;;;4.77;44.34;99411.75;2099718;91;25264;-84
2021/12/23 17:56:19;;;;;;;43.25;19.80;;;;;;;4.82;47.87;99394.25;2285425;84;25930;-88
2021/12/23 18:00:08;;;;;;;36.35;19.60;;;;;;;5.01;47.25;99378.03;2210970;88;25773;-90
2021/12/23 18:03:52;;;;;;;43.08;20.27;;;;;;;4.99;47.27;99380.55;2143103;90;25768;-91
2021/12/23 18:07:20;;;;;;;35.78;19.65;;;;;;;4.98;47.45;99365.91;2229858;87;25906;-82
2021/12/23 18:11:04;;;;;;;39.50;19.55;;;;;;;4.96;47.35;99352.95;2243609;86;25673;-86
2021/12/23 18:14:54;;;;;;;37.78;20.48;;;;;;;4.94;47.19;99336.95;2129653;91;26034;-81
2021/12/23 18:18:31;;;;;;;39.98;21.42;;;;;;;4.93;47.02;99327.03;2109242;90;25318;-84
2021/12/23 18:22:07;;;;;;;38.98;20.80;;;;;;;4.92;46.83;99326.97;2048908;93;25869;-86
2021/12/23 18:25:41;;;;;;;31.70;19.23;;;;;;;4.92;46.65;99323.10;2142542;88;25881;-89
2021/12/23 18:29:31;;;;;;;41.37;20.52;;;;;;;4.91;46.49;99311.90;2119563;89;26715;-88
2021/12/23 18:33:50;;;;;;;;;;;;;;;;;;;;;
2021/12/23 18:36:47;;;;;;;42.13;20.52;;;;;;;4.90;46.22;99310.16;2098107;90;25718;-82
2021/12/23 18:40:31;;;;;;;34.90;18.95;;;;;;;4.90;46.09;99297.67;2102879;91;26011;-82
2021/12/23 18:44:05;;;;;;;35.88;19.90;;;;;;;4.88;45.99;99294.16;2108540;91;26667;-86
2021/12/23 18:47:37;;;;;;;37.33;19.85;;;;;;;4.89;45.85;99289.05;2108725;90;25826;-83
2021/12/23 18:51:36;;;;;;;;;;;;;;;;;;;;;
2021/12/23 18:55:07;;;;;;;33.15;19.73;;;;;;;4.88;45.71;99272.20;2159854;85;25685;-81
2021/12/23 18:58:34;;;;;;;35.10;20.02;;;;;;;4.88;45.59;99265.75;2277085;84;26170;-82
2021/12/23 19:02:19;;;;;;;34.15;19.32;;;;;;;4.87;45.52;99261.00;2250187;85;26192;-78
2021/12/23 19:09:18;;;;;;;37.83;21.15;;;;;;;4.87;45.40;99241.64;2190676;87;25976;-78
2021/12/23 19:12:57;;;;;;;36.40;20.48;;;;;;;4.87;45.40;99242.93;2233727;86;25787;-80
2021/12/23 19:16:36;;;;;;;36.00;21.17;;;;;;;4.88;45.37;99236.05;2235403;86;25803;-86
2021/12/23 19:20:22;;;;;;;;;;;;;;;;;;;;;
2021/12/23 19:23:51;;;;;;;33.48;19.85;;;;;;;4.89;45.31;99230.05;2120337;91;25825;-86
2021/12/23 19:27:32;;;;;;;37.17;19.15;;;;;;;4.90;45.26;99218.91;2195471;87;25670;-80
2021/12/23 19:34:55;;;;;;;39.33;20.15;;;;;;;4.91;45.22;99198.70;2138565;92;25925;-81
2021/12/23 19:38:41;;;;;;;;;;;;;;;;;;;;;
2021/12/23 19:41:58;;;;;;;35.90;18.90;;;;;;;4.91;45.18;99191.81;2043323;93;26510;-83
2021/12/23 19:45:35;;;;;;;34.65;20.15;;;;;;;4.93;45.17;99170.80;2042467;95;26426;-80
2021/12/23 19:49:06;;;;;;;42.25;21.55;;;;;;;4.92;45.15;99161.27;2014249;96;26166;-81
2021/12/23 19:53:33;;;;;;;40.90;20.70;;;;;;;4.94;45.14;99155.75;2039263;95;25781;-81
2021/12/23 19:57:31;;;;;;;34.43;20.25;;;;;;;4.94;45.07;99154.87;2013049;96;25810;-81
2021/12/23 20:01:19;;;;;;;34.15;19.67;;;;;;;4.95;45.09;99147.16;1994287;96;25912;-84
2021/12/23 20:05:30;;;;;;;37.98;20.82;;;;;;;4.96;45.01;99136.41;1937375;99;26029;-79
2021/12/23 20:09:46;;;;;;;;;;;;;;;;;;;;;
2021/12/23 20:25:14;;;;;;;;;;;;;;;;;;;;;
2021/12/23 20:34:17;;;;;;;;;;;;;;;;;;;;;
2021/12/23 20:43:57;;;;;;;37.13;19.55;;;;;;;4.96;44.95;99064.09;1768513;110;25982;-81
2021/12/23 20:47:50;;;;;;;34.80;19.55;;;;;;;4.94;44.96;99052.45;1767355;110;26081;-85
2021/12/23 20:51:38;;;;;;;38.00;21.57;;;;;;;4.96;44.96;99048.59;1827339;106;25977;-80
2021/12/23 20:55:03;;;;;;;35.35;19.98;;;;;;;4.95;44.95;99036.11;1871076;102;25998;-82
2021/12/23 20:58:36;;;;;;;32.40;19.73;;;;;;;4.95;44.98;99016.73;1965548;99;26582;-82
2021/12/23 21:02:10;;;;;;;37.55;20.15;;;;;;;4.96;45.03;99009.47;2025995;92;25739;-83
2021/12/23 21:05:47;;;;;;;33.80;18.80;;;;;;;4.98;45.00;99005.20;2079368;93;25838;-81
2021/12/23 21:09:37;;;;;;;;;;;;;;;;;;;;;